createdAt,value
2018-09-20T00:00:53.943Z,16.67
2018-09-20T00:03:22.274Z,17.67
2018-09-20T00:05:50.542Z,14.07
2018-09-20T00:08:18.900Z,14.30
2018-09-20T00:10:47.270Z,17.33
2018-09-20T00:13:15.568Z,15.17
2018-09-20T00:15:43.900Z,14.03
2018-09-20T00:18:12.169Z,13.10
2018-09-20T00:20:40.468Z,15.00
2018-09-20T00:23:08.899Z,13.80
2018-09-20T00:25:37.391Z,12.10
2018-09-20T00:28:05.696Z,11.77
2018-09-20T00:30:33.999Z,16.37
2018-09-20T00:33:02.357Z,13.00
2018-09-20T00:35:30.608Z,18.27
2018-09-20T00:37:58.927Z,17.47
2018-09-20T00:40:27.304Z,22.47
2018-09-20T00:42:55.678Z,15.20
2018-09-20T00:45:23.949Z,14.80
2018-09-20T00:47:52.247Z,14.50
2018-09-20T00:50:20.829Z,14.50
2018-09-20T00:52:49.206Z,12.77
2018-09-20T00:55:17.557Z,14.73
2018-09-20T00:57:45.844Z,15.93
2018-09-20T01:00:14.197Z,14.30
2018-09-20T01:02:42.644Z,20.70
2018-09-20T01:05:11.028Z,13.83
2018-09-20T01:07:39.307Z,16.90
2018-09-20T01:10:07.632Z,12.93
2018-09-20T01:12:35.930Z,15.30
2018-09-20T01:15:04.943Z,14.67
2018-09-20T01:17:33.431Z,13.53
2018-09-20T01:20:01.726Z,15.10
2018-09-20T01:22:31.416Z,10.90
2018-09-20T01:24:59.711Z,18.43
2018-09-20T01:27:28.610Z,15.73
2018-09-20T01:29:56.922Z,16.30
2018-09-20T01:32:25.457Z,15.83
2018-09-20T01:34:53.777Z,17.70
2018-09-20T01:37:22.045Z,19.67
2018-09-20T01:39:50.556Z,14.73
2018-09-20T01:42:18.871Z,23.30
2018-09-20T01:44:47.233Z,12.10
2018-09-20T01:47:15.511Z,14.30
2018-09-20T01:49:43.909Z,18.50
2018-09-20T01:52:12.231Z,13.77
2018-09-20T01:54:40.524Z,15.17
2018-09-20T01:57:08.985Z,17.67
2018-09-20T01:59:37.216Z,13.80
2018-09-20T02:02:05.673Z,15.73
2018-09-20T02:04:33.953Z,18.77
2018-09-20T02:07:02.298Z,12.97
2018-09-20T02:09:30.600Z,14.77
2018-09-20T02:11:59.013Z,17.77
2018-09-20T02:14:27.321Z,12.17
2018-09-20T02:16:55.827Z,14.70
2018-09-20T02:19:24.142Z,19.33
2018-09-20T02:21:52.460Z,18.10
2018-09-20T02:24:20.872Z,17.33
2018-09-20T02:26:49.153Z,16.20
2018-09-20T02:29:17.615Z,15.03
2018-09-20T02:31:45.980Z,23.13
2018-09-20T02:34:14.495Z,18.17
2018-09-20T02:36:42.832Z,21.33
2018-09-20T02:39:11.166Z,17.30
2018-09-20T02:41:39.502Z,16.00
2018-09-20T02:44:07.826Z,14.63
2018-09-20T02:46:36.107Z,20.40
2018-09-20T02:49:04.464Z,16.50
2018-09-20T02:51:32.823Z,16.70
2018-09-20T02:54:01.144Z,21.53
2018-09-20T02:56:29.488Z,23.60
2018-09-20T02:58:57.836Z,14.13
2018-09-20T03:01:26.268Z,15.00
2018-09-20T03:03:54.641Z,18.50
2018-09-20T03:06:22.993Z,17.57
2018-09-20T03:08:51.397Z,17.10
2018-09-20T03:11:19.877Z,20.23
2018-09-20T03:13:48.343Z,17.63
2018-09-20T03:16:16.928Z,18.50
2018-09-20T03:18:45.507Z,14.83
2018-09-20T03:21:13.861Z,16.10
2018-09-20T03:23:42.380Z,20.33
2018-09-20T03:26:10.769Z,18.80
2018-09-20T03:28:39.085Z,17.60
2018-09-20T03:31:07.690Z,19.90
2018-09-20T03:33:36.111Z,16.10
2018-09-20T03:36:04.392Z,18.20
2018-09-20T03:38:32.992Z,17.73
2018-09-20T03:41:01.417Z,17.80
2018-09-20T03:43:29.874Z,15.63
2018-09-20T03:45:58.120Z,13.00
2018-09-20T03:48:26.659Z,16.27
2018-09-20T03:50:55.032Z,17.53
2018-09-20T03:53:23.400Z,17.40
2018-09-20T03:55:51.821Z,20.00
2018-09-20T03:58:20.144Z,15.00
2018-09-20T04:00:48.423Z,17.67
2018-09-20T04:03:16.811Z,18.23
2018-09-20T04:05:45.227Z,17.10
2018-09-20T04:08:13.554Z,19.37
2018-09-20T04:10:42.163Z,19.13
2018-09-20T04:13:10.446Z,14.10
2018-09-20T04:15:38.733Z,19.07
2018-09-20T04:18:07.143Z,16.80
2018-09-20T04:20:35.419Z,20.80
2018-09-20T04:23:03.721Z,19.27
2018-09-20T04:25:32.100Z,20.03
2018-09-20T04:28:00.372Z,22.13
2018-09-20T04:30:28.899Z,17.77
2018-09-20T04:32:57.405Z,18.20
2018-09-20T04:35:25.815Z,23.33
2018-09-20T04:37:54.097Z,20.17
2018-09-20T04:40:22.409Z,24.67
2018-09-20T04:42:50.849Z,17.37
2018-09-20T04:45:19.236Z,28.70
2018-09-20T04:47:47.827Z,20.77
2018-09-20T04:50:16.123Z,21.03
2018-09-20T04:52:44.504Z,16.97
2018-09-20T04:55:12.865Z,23.20
2018-09-20T04:57:41.207Z,16.63
2018-09-20T05:00:09.634Z,21.00
2018-09-20T05:02:37.962Z,16.00
2018-09-20T05:05:06.432Z,17.37
2018-09-20T05:07:34.709Z,19.27
2018-09-20T05:10:03.013Z,20.40
2018-09-20T05:12:31.321Z,18.97
2018-09-20T05:14:59.775Z,17.70
2018-09-20T05:17:28.277Z,24.40
2018-09-20T05:19:56.591Z,19.47
2018-09-20T05:22:24.875Z,16.80
2018-09-20T05:24:53.151Z,19.30
2018-09-20T05:27:22.580Z,20.27
2018-09-20T05:29:50.958Z,19.17
2018-09-20T05:32:19.456Z,23.00
2018-09-20T05:34:47.882Z,25.23
2018-09-20T05:37:16.303Z,17.70
2018-09-20T05:39:44.648Z,24.87
2018-09-20T05:42:13.074Z,19.57
2018-09-20T05:44:41.369Z,19.50
2018-09-20T05:47:09.944Z,17.50
2018-09-20T05:49:38.239Z,19.63
2018-09-20T05:52:06.764Z,28.80
2018-09-20T05:54:35.110Z,17.03
2018-09-20T05:57:03.654Z,21.83
2018-09-20T05:59:32.101Z,21.80
2018-09-20T06:02:00.502Z,28.90
2018-09-20T06:04:28.939Z,18.20
2018-09-20T06:06:57.273Z,18.57
2018-09-20T06:09:25.589Z,16.27
2018-09-20T06:11:53.988Z,18.07
2018-09-20T06:14:22.308Z,25.50
2018-09-20T06:16:50.644Z,31.03
2018-09-20T06:19:18.944Z,33.07
2018-09-20T06:21:47.341Z,34.93
2018-09-20T06:24:15.546Z,34.23
2018-09-20T06:26:44.024Z,51.83
2018-09-20T06:29:12.624Z,35.00
2018-09-20T06:31:41.322Z,45.27
2018-09-20T06:34:09.826Z,40.40
2018-09-20T06:36:38.428Z,48.00
2018-09-20T06:39:09.992Z,39.43
2018-09-20T06:41:38.455Z,28.90
2018-09-20T06:44:06.996Z,24.27
2018-09-20T06:46:35.379Z,31.60
2018-09-20T06:49:03.707Z,24.53
2018-09-20T06:51:32.130Z,31.03
2018-09-20T06:54:00.541Z,25.43
2018-09-20T06:56:28.844Z,20.97
2018-09-20T06:58:57.135Z,28.23
2018-09-20T07:01:26.197Z,25.23
2018-09-20T07:03:54.487Z,21.40
2018-09-20T07:06:22.924Z,21.10
2018-09-20T07:08:51.263Z,20.37
2018-09-20T07:11:19.596Z,21.10
2018-09-20T07:13:48.129Z,41.73
2018-09-20T07:16:16.419Z,23.27
2018-09-20T07:18:44.758Z,21.57
2018-09-20T07:21:13.107Z,21.33
2018-09-20T07:23:41.394Z,19.13
2018-09-20T07:26:09.858Z,15.73
2018-09-20T07:28:38.164Z,15.47
2018-09-20T07:31:06.920Z,21.90
2018-09-20T07:33:35.272Z,23.30
2018-09-20T07:36:03.556Z,24.97
2018-09-20T07:38:31.958Z,22.17
2018-09-20T07:41:00.320Z,34.43
2018-09-20T07:43:28.671Z,19.13
2018-09-20T07:45:56.999Z,18.63
2018-09-20T07:48:25.316Z,16.00
2018-09-20T07:50:53.645Z,15.80
2018-09-20T07:53:22.070Z,17.67
2018-09-20T07:55:50.304Z,12.70
2018-09-20T07:58:18.773Z,12.60
2018-09-20T08:00:47.040Z,21.70
2018-09-20T08:03:15.407Z,13.93
2018-09-20T08:05:43.688Z,11.90
2018-09-20T08:08:12.030Z,17.83
2018-09-20T08:10:40.379Z,20.83
2018-09-20T08:13:08.779Z,21.40
2018-09-20T08:15:37.103Z,12.73
2018-09-20T08:18:05.369Z,16.20
2018-09-20T08:20:33.692Z,18.43
2018-09-20T08:23:01.966Z,26.30
2018-09-20T08:25:30.422Z,14.10
2018-09-20T08:27:58.898Z,15.20
2018-09-20T08:30:27.132Z,17.10
2018-09-20T08:32:55.412Z,13.50
2018-09-20T08:35:23.714Z,12.10
2018-09-20T08:37:52.085Z,14.17
2018-09-20T08:40:20.417Z,28.33
2018-09-20T08:42:48.693Z,12.20
2018-09-20T08:45:17.046Z,11.23
2018-09-20T08:47:45.350Z,10.10
2018-09-20T08:50:13.686Z,18.47
2018-09-20T08:52:42.092Z,23.13
2018-09-20T08:55:10.500Z,9.63
2018-09-20T08:57:44.024Z,17.37
2018-09-20T09:00:12.303Z,12.07
2018-09-20T09:02:40.682Z,15.60
2018-09-20T09:05:09.075Z,17.00
2018-09-20T09:07:38.178Z,15.00
2018-09-20T09:10:06.946Z,11.50
2018-09-20T09:12:35.207Z,11.83
2018-09-20T09:15:03.461Z,13.43
2018-09-20T09:17:31.872Z,21.00
2018-09-20T09:20:00.073Z,16.43
2018-09-20T09:22:28.378Z,13.83
2018-09-20T09:24:57.073Z,11.00
2018-09-20T09:27:25.438Z,12.00
2018-09-20T09:29:53.756Z,21.60
2018-09-20T09:32:22.007Z,13.13
2018-09-20T09:34:50.335Z,11.63
2018-09-20T09:37:19.764Z,11.33
2018-09-20T09:39:48.089Z,11.30
2018-09-20T09:42:16.469Z,10.13
2018-09-20T09:44:44.731Z,16.93
2018-09-20T09:47:13.050Z,17.77
2018-09-20T09:49:41.400Z,16.57
2018-09-20T09:52:09.718Z,19.40
2018-09-20T09:54:38.028Z,19.70
2018-09-20T09:57:06.750Z,34.17
2018-09-20T09:59:35.168Z,23.27
2018-09-20T10:02:03.542Z,16.83
2018-09-20T10:04:31.866Z,23.90
2018-09-20T10:07:00.315Z,13.33
2018-09-20T10:09:28.619Z,25.93
2018-09-20T10:11:56.913Z,17.23
2018-09-20T10:14:25.302Z,15.07
2018-09-20T10:16:53.617Z,17.27
2018-09-20T10:19:21.860Z,23.13
2018-09-20T10:21:50.224Z,12.33
2018-09-20T10:24:18.523Z,18.17
2018-09-20T10:26:46.859Z,25.17
2018-09-20T10:29:15.221Z,17.60
2018-09-20T10:31:43.545Z,18.63
2018-09-20T10:34:11.999Z,14.17
2018-09-20T10:36:40.214Z,23.77
2018-09-20T10:39:11.370Z,25.10
2018-09-20T10:41:39.686Z,23.33
2018-09-20T10:44:08.340Z,16.17
2018-09-20T10:46:36.719Z,17.00
2018-09-20T10:49:05.008Z,13.87
2018-09-20T10:51:33.316Z,17.40
2018-09-20T10:54:01.597Z,15.23
2018-09-20T10:56:29.877Z,12.97
2018-09-20T10:58:58.325Z,11.47
2018-09-20T11:01:26.684Z,19.03
2018-09-20T11:03:55.069Z,11.63
2018-09-20T11:06:23.379Z,10.87
2018-09-20T11:08:51.989Z,10.00
2018-09-20T11:11:20.401Z,14.27
2018-09-20T11:13:48.786Z,16.13
2018-09-20T11:16:17.992Z,9.37
2018-09-20T11:18:46.572Z,8.40
2018-09-20T11:21:15.159Z,9.30
2018-09-20T11:23:43.725Z,10.23
2018-09-20T11:26:12.129Z,13.10
2018-09-20T11:28:41.143Z,11.50
2018-09-20T11:31:09.814Z,9.23
2018-09-20T11:33:38.256Z,10.20
2018-09-20T11:36:06.716Z,10.83
2018-09-20T11:38:35.218Z,17.17
2018-09-20T11:41:03.654Z,7.83
2018-09-20T11:43:32.117Z,17.13
2018-09-20T11:46:00.677Z,10.20
2018-09-20T11:48:28.950Z,16.23
2018-09-20T11:50:57.297Z,11.13
2018-09-20T11:53:25.629Z,11.27
2018-09-20T11:55:53.900Z,10.50
2018-09-20T11:58:22.333Z,17.83
2018-09-20T12:00:50.756Z,10.60
2018-09-20T12:03:19.039Z,7.50
2018-09-20T12:05:47.411Z,9.83
2018-09-20T12:08:16.157Z,7.67
2018-09-20T12:10:44.471Z,6.67
2018-09-20T12:13:12.839Z,10.20
2018-09-20T12:15:41.168Z,6.97
2018-09-20T12:18:09.481Z,6.87
2018-09-20T12:20:37.947Z,7.13
2018-09-20T12:23:06.201Z,6.77
2018-09-20T12:25:34.531Z,8.83
2018-09-20T12:28:02.839Z,6.80
2018-09-20T12:30:31.336Z,8.47
2018-09-20T12:32:59.630Z,5.87
2018-09-20T12:35:28.118Z,5.57
2018-09-20T12:37:56.408Z,6.03
2018-09-20T12:40:24.696Z,7.47
2018-09-20T12:42:53.204Z,5.70
2018-09-20T12:45:21.456Z,5.47
2018-09-20T12:47:49.752Z,8.40
2018-09-20T12:50:18.069Z,5.87
2018-09-20T12:52:46.492Z,5.30
2018-09-20T12:55:15.042Z,5.30
2018-09-20T12:57:43.410Z,5.27
2018-09-20T13:00:11.882Z,5.27
2018-09-20T13:02:40.222Z,5.63
2018-09-20T13:05:08.648Z,5.07
2018-09-20T13:07:36.954Z,4.60
2018-09-20T13:10:05.411Z,5.87
2018-09-20T13:12:33.761Z,5.40
2018-09-20T13:15:02.177Z,7.20
2018-09-20T13:17:30.727Z,5.10
2018-09-20T13:19:59.063Z,5.80
2018-09-20T13:22:27.489Z,5.97
2018-09-20T13:24:56.110Z,5.53
2018-09-20T13:27:24.793Z,8.10
2018-09-20T13:29:53.212Z,7.93
2018-09-20T13:32:21.755Z,5.00
2018-09-20T13:34:50.352Z,5.13
2018-09-20T13:37:18.958Z,5.10
2018-09-20T13:39:47.650Z,4.83
2018-09-20T13:42:15.938Z,8.43
2018-09-20T13:44:44.268Z,6.57
2018-09-20T13:47:12.724Z,13.27
2018-09-20T13:49:40.989Z,6.43
2018-09-20T13:52:09.377Z,5.73
2018-09-20T13:54:37.771Z,5.70
2018-09-20T13:57:06.159Z,6.53
2018-09-20T13:59:34.458Z,5.17
2018-09-20T14:02:03.722Z,6.40
2018-09-20T14:04:32.261Z,4.43
2018-09-20T14:07:00.556Z,5.20
2018-09-20T14:09:29.337Z,5.80
2018-09-20T14:11:57.650Z,4.77
2018-09-20T14:14:25.931Z,5.30
2018-09-20T14:16:54.227Z,4.60
2018-09-20T14:19:22.703Z,6.83
2018-09-20T14:21:50.992Z,5.43
2018-09-20T14:24:19.557Z,5.87
2018-09-20T14:26:47.847Z,5.87
2018-09-20T14:29:16.223Z,8.17
2018-09-20T14:31:44.956Z,5.53
2018-09-20T14:34:13.199Z,5.37
2018-09-20T14:36:41.564Z,5.27
2018-09-20T14:39:10.970Z,5.63
2018-09-20T14:41:39.679Z,5.17
2018-09-20T14:44:08.022Z,5.13
2018-09-20T14:46:36.303Z,4.90
2018-09-20T14:49:04.697Z,5.67
2018-09-20T14:51:33.131Z,4.90
2018-09-20T14:54:01.460Z,5.50
2018-09-20T14:56:29.769Z,4.57
2018-09-20T14:58:58.102Z,4.93
2018-09-20T15:01:26.385Z,5.30
2018-09-20T15:03:54.740Z,4.87
2018-09-20T15:06:23.053Z,5.03
2018-09-20T15:08:51.404Z,4.33
2018-09-20T15:11:19.688Z,4.00
2018-09-20T15:13:48.244Z,4.73
2018-09-20T15:16:16.538Z,5.13
2018-09-20T15:18:44.841Z,4.00
2018-09-20T15:21:13.145Z,3.93
2018-09-20T15:23:41.429Z,3.87
2018-09-20T15:26:09.727Z,5.20
2018-09-20T15:28:38.419Z,4.87
2018-09-20T15:31:06.943Z,16.60
2018-09-20T15:33:35.255Z,5.53
2018-09-20T15:36:03.552Z,6.13
2018-09-20T15:38:31.858Z,4.30
2018-09-20T15:41:01.138Z,4.10
2018-09-20T15:43:29.376Z,4.40
2018-09-20T15:45:57.681Z,5.30
2018-09-20T15:48:26.048Z,4.67
2018-09-20T15:50:54.482Z,5.00
2018-09-20T15:53:22.800Z,4.57
2018-09-20T15:55:51.089Z,4.80
2018-09-20T15:58:19.615Z,4.50
2018-09-20T16:00:47.860Z,4.00
2018-09-20T16:03:17.007Z,8.40
2018-09-20T16:05:45.323Z,5.87
2018-09-20T16:08:13.649Z,4.27
2018-09-20T16:10:41.953Z,4.40
2018-09-20T16:13:10.353Z,5.10
2018-09-20T16:15:39.503Z,4.90
2018-09-20T16:18:08.025Z,5.63
2018-09-20T16:20:36.286Z,5.43
2018-09-20T16:23:04.604Z,5.43
2018-09-20T16:25:32.856Z,6.27
2018-09-20T16:28:10.528Z,5.23
2018-09-20T16:30:52.440Z,5.17
2018-09-20T16:33:38.611Z,6.93
2018-09-20T16:36:17.710Z,5.10
2018-09-20T16:38:56.007Z,5.30
2018-09-20T16:41:30.820Z,6.20
2018-09-20T16:43:59.929Z,7.67
2018-09-20T16:46:28.224Z,14.13
2018-09-20T16:48:56.536Z,9.43
2018-09-20T16:51:24.855Z,8.73
2018-09-20T16:53:53.313Z,8.17
2018-09-20T16:56:21.866Z,11.63
2018-09-20T16:58:51.511Z,9.00
2018-09-20T17:01:20.604Z,7.17
2018-09-20T17:03:49.177Z,10.40
2018-09-20T17:06:18.242Z,8.00
2018-09-20T17:08:47.344Z,10.73
2018-09-20T17:11:15.678Z,11.70
2018-09-20T17:13:44.176Z,12.10
2018-09-20T17:16:12.667Z,16.27
2018-09-20T17:18:40.985Z,14.33
2018-09-20T17:21:09.577Z,16.83
2018-09-20T17:23:37.978Z,13.33
2018-09-20T17:26:06.456Z,10.33
2018-09-20T17:28:34.921Z,11.47
2018-09-20T17:31:03.342Z,8.33
2018-09-20T17:33:31.988Z,9.77
2018-09-20T17:36:00.752Z,9.40
2018-09-20T17:38:31.170Z,18.10
2018-09-20T17:41:09.580Z,12.20
2018-09-20T17:43:46.376Z,19.17
2018-09-20T17:46:15.141Z,14.20
2018-09-20T17:48:43.475Z,18.93
2018-09-20T17:51:13.272Z,12.73
2018-09-20T17:53:42.976Z,9.10
2018-09-20T17:56:12.167Z,11.07
2018-09-20T17:58:41.661Z,20.17
2018-09-20T18:01:10.083Z,10.37
2018-09-20T18:03:38.356Z,16.63
2018-09-20T18:06:06.804Z,20.60
2018-09-20T18:08:35.268Z,13.03
2018-09-20T18:11:03.713Z,16.43
2018-09-20T18:13:32.416Z,12.93
2018-09-20T18:16:00.703Z,14.90
2018-09-20T18:18:29.000Z,11.83
2018-09-20T18:20:57.318Z,22.07
2018-09-20T18:23:25.818Z,16.53
2018-09-20T18:25:54.119Z,14.20
2018-09-20T18:28:53.800Z,10.57
2018-09-20T18:31:22.096Z,15.23
2018-09-20T18:33:53.037Z,10.77
2018-09-20T18:36:21.671Z,14.03
2018-09-20T18:38:49.982Z,10.73
2018-09-20T18:41:18.394Z,19.90
2018-09-20T18:43:46.751Z,15.20
2018-09-20T18:46:15.201Z,18.13
2018-09-20T18:48:43.504Z,18.90
2018-09-20T18:51:11.904Z,20.40
2018-09-20T18:53:40.149Z,16.77
2018-09-20T18:56:08.392Z,18.63
2018-09-20T18:58:36.702Z,14.13
2018-09-20T19:01:05.018Z,11.73
2018-09-20T19:03:33.376Z,14.50
2018-09-20T19:06:02.118Z,13.73
2018-09-20T19:08:30.435Z,11.90
2018-09-20T19:10:59.990Z,14.73
2018-09-20T19:13:28.923Z,14.00
2018-09-20T19:15:57.428Z,15.30
2018-09-20T19:18:26.310Z,11.13
2018-09-20T19:20:54.677Z,18.50
2018-09-20T19:23:23.128Z,18.53
2018-09-20T19:25:51.571Z,10.87
2018-09-20T19:28:20.076Z,14.33
2018-09-20T19:30:48.480Z,20.07
2018-09-20T19:33:16.857Z,25.27
2018-09-20T19:35:45.245Z,14.60
2018-09-20T19:38:13.696Z,23.07
2018-09-20T19:40:42.125Z,19.50
2018-09-20T19:43:11.361Z,12.20
2018-09-20T19:45:39.680Z,14.70
2018-09-20T19:48:07.974Z,20.03
2018-09-20T19:50:36.396Z,12.27
2018-09-20T19:53:04.772Z,18.53
2018-09-20T19:55:33.162Z,11.50
2018-09-20T19:58:01.474Z,16.83
2018-09-20T20:00:29.981Z,15.10
2018-09-20T20:02:58.506Z,25.43
2018-09-20T20:05:26.820Z,18.10
2018-09-20T20:07:55.107Z,19.43
2018-09-20T20:10:23.572Z,18.13
2018-09-20T20:12:51.867Z,20.30
2018-09-20T20:15:20.176Z,18.90
2018-09-20T20:17:48.481Z,17.23
2018-09-20T20:20:16.816Z,26.03
2018-09-20T20:22:45.152Z,19.30
2018-09-20T20:25:13.945Z,28.70
2018-09-20T20:27:44.320Z,24.03
2018-09-20T20:30:12.872Z,15.27
2018-09-20T20:32:41.193Z,13.77
2018-09-20T20:35:09.658Z,13.20
2018-09-20T20:37:38.225Z,17.40
2018-09-20T20:40:08.184Z,18.20
2018-09-20T20:42:36.836Z,16.97
2018-09-20T20:45:05.331Z,19.50
2018-09-20T20:47:33.841Z,11.90
2018-09-20T20:50:02.391Z,22.23
2018-09-20T20:52:31.758Z,22.60
2018-09-20T20:55:00.251Z,14.47
2018-09-20T20:57:28.651Z,14.30
2018-09-20T20:59:57.424Z,15.30
2018-09-20T21:02:25.880Z,15.97
2018-09-20T21:04:54.395Z,17.23
2018-09-20T21:07:23.028Z,21.83
2018-09-20T21:09:51.613Z,10.93
2018-09-20T21:12:20.039Z,15.47
2018-09-20T21:14:48.397Z,14.93
2018-09-20T21:17:17.404Z,18.77
2018-09-20T21:19:45.770Z,16.10
2018-09-20T21:22:14.138Z,12.20
2018-09-20T21:24:42.455Z,17.80
2018-09-20T21:27:10.749Z,15.47
2018-09-20T21:29:39.938Z,16.00
2018-09-20T21:32:09.433Z,15.23
2018-09-20T21:34:38.109Z,20.47
2018-09-20T21:37:06.780Z,14.80
2018-09-20T21:39:35.357Z,11.70
2018-09-20T21:42:03.952Z,21.13
2018-09-20T21:44:32.430Z,16.20
2018-09-20T21:47:00.847Z,16.47
2018-09-20T21:49:29.217Z,13.17
2018-09-20T21:51:57.689Z,13.93
2018-09-20T21:54:26.409Z,14.27
2018-09-20T21:56:56.597Z,13.00
2018-09-20T21:59:28.765Z,15.03
2018-09-20T22:02:08.652Z,12.47
2018-09-20T22:04:41.699Z,13.80
2018-09-20T22:07:28.360Z,19.07
2018-09-20T22:10:04.102Z,13.93
2018-09-20T22:12:46.778Z,17.53
2018-09-20T22:15:31.115Z,22.30
2018-09-20T22:18:09.600Z,11.30
2018-09-20T22:20:44.874Z,14.47
2018-09-20T22:23:17.126Z,14.80
2018-09-20T22:25:59.264Z,14.27
2018-09-20T22:28:30.088Z,30.63
2018-09-20T22:33:48.397Z,14.40
2018-09-20T22:36:17.198Z,19.63
2018-09-20T22:38:48.280Z,20.03
2018-09-20T22:41:16.616Z,21.40
2018-09-20T22:43:44.947Z,16.13
2018-09-20T22:46:13.429Z,23.23
2018-09-20T22:48:43.796Z,14.97
2018-09-20T22:51:12.847Z,20.17
2018-09-20T22:53:41.813Z,12.90
2018-09-20T22:56:13.301Z,21.57
2018-09-20T22:58:42.274Z,17.70
2018-09-20T23:01:15.913Z,16.00
2018-09-20T23:03:47.159Z,17.80
2018-09-20T23:06:19.791Z,17.57
2018-09-20T23:08:48.300Z,13.60
2018-09-20T23:11:16.665Z,17.37
2018-09-20T23:13:44.980Z,20.20
2018-09-20T23:16:13.494Z,15.90
2018-09-20T23:18:41.858Z,17.53
2018-09-20T23:21:10.199Z,16.17
2018-09-20T23:23:38.631Z,21.80
2018-09-20T23:26:07.123Z,14.20
2018-09-20T23:28:35.428Z,17.50
2018-09-20T23:31:03.745Z,15.13
2018-09-20T23:33:32.173Z,17.07
2018-09-20T23:36:00.579Z,24.37
2018-09-20T23:38:28.920Z,13.60
2018-09-20T23:40:57.256Z,20.13
2018-09-20T23:43:25.624Z,21.17
2018-09-20T23:45:54.027Z,19.90
2018-09-20T23:48:22.357Z,23.87
2018-09-20T23:50:50.692Z,13.00
2018-09-20T23:53:19.075Z,17.10
2018-09-20T23:55:47.358Z,12.10
2018-09-20T23:58:15.708Z,21.03
